sensor_id;sensor_type;location;lat;lon;timestamp;temperature;humidity
75321;DHT22;63920;52.130;5.584;2022-10-16T00:02:12;13.10;90.70
75321;DHT22;63920;52.130;5.584;2022-10-16T00:04:38;13.10;91.20
75321;DHT22;63920;52.130;5.584;2022-10-16T00:07:03;13.00;90.90
75321;DHT22;63920;52.130;5.584;2022-10-16T00:09:29;13.00;90.90
75321;DHT22;63920;52.130;5.584;2022-10-16T00:11:54;13.00;91.00
75321;DHT22;63920;52.130;5.584;2022-10-16T00:14:20;12.90;91.00
75321;DHT22;63920;52.130;5.584;2022-10-16T00:16:45;12.90;91.10
75321;DHT22;63920;52.130;5.584;2022-10-16T00:19:11;12.90;91.10
75321;DHT22;63920;52.130;5.584;2022-10-16T00:21:37;13.00;91.20
75321;DHT22;63920;52.130;5.584;2022-10-16T00:24:06;13.00;91.20
75321;DHT22;63920;52.130;5.584;2022-10-16T00:26:34;13.00;91.30
75321;DHT22;63920;52.130;5.584;2022-10-16T00:29:00;13.00;91.50
75321;DHT22;63920;52.130;5.584;2022-10-16T00:31:26;13.00;91.60
75321;DHT22;63920;52.130;5.584;2022-10-16T00:33:52;13.00;91.20
75321;DHT22;63920;52.130;5.584;2022-10-16T00:36:20;13.00;91.30
75321;DHT22;63920;52.130;5.584;2022-10-16T00:38:46;13.00;91.10
75321;DHT22;63920;52.130;5.584;2022-10-16T00:41:16;13.00;91.20
75321;DHT22;63920;52.130;5.584;2022-10-16T00:43:49;13.00;91.30
75321;DHT22;63920;52.130;5.584;2022-10-16T00:46:40;13.10;91.30
75321;DHT22;63920;52.130;5.584;2022-10-16T00:49:10;13.10;91.20
75321;DHT22;63920;52.130;5.584;2022-10-16T00:51:46;13.10;91.20
75321;DHT22;63920;52.130;5.584;2022-10-16T00:54:31;13.10;91.20
75321;DHT22;63920;52.130;5.584;2022-10-16T00:57:00;13.10;91.30
75321;DHT22;63920;52.130;5.584;2022-10-16T00:59:29;13.10;91.30
75321;DHT22;63920;52.130;5.584;2022-10-16T01:01:56;13.10;91.40
75321;DHT22;63920;52.130;5.584;2022-10-16T01:04:23;13.10;91.50
75321;DHT22;63920;52.130;5.584;2022-10-16T01:10:30;13.20;91.60
75321;DHT22;63920;52.130;5.584;2022-10-16T01:16:02;13.20;91.50
75321;DHT22;63920;52.130;5.584;2022-10-16T01:18:43;13.20;91.60
75321;DHT22;63920;52.130;5.584;2022-10-16T01:21:20;13.20;91.60
75321;DHT22;63920;52.130;5.584;2022-10-16T01:24:17;13.20;91.60
75321;DHT22;63920;52.130;5.584;2022-10-16T01:27:07;13.20;91.40
75321;DHT22;63920;52.130;5.584;2022-10-16T01:29:34;13.20;91.90
75321;DHT22;63920;52.130;5.584;2022-10-16T01:32:20;13.30;91.50
75321;DHT22;63920;52.130;5.584;2022-10-16T01:34:52;13.20;91.60
75321;DHT22;63920;52.130;5.584;2022-10-16T01:37:35;13.20;91.60
75321;DHT22;63920;52.130;5.584;2022-10-16T01:40:07;13.20;91.70
75321;DHT22;63920;52.130;5.584;2022-10-16T01:42:44;13.20;91.70
75321;DHT22;63920;52.130;5.584;2022-10-16T01:45:13;13.20;91.80
75321;DHT22;63920;52.130;5.584;2022-10-16T01:47:40;13.20;91.90
75321;DHT22;63920;52.130;5.584;2022-10-16T01:50:08;13.20;91.90
75321;DHT22;63920;52.130;5.584;2022-10-16T01:52:36;13.30;91.80
75321;DHT22;63920;52.130;5.584;2022-10-16T01:55:05;13.30;91.90
75321;DHT22;63920;52.130;5.584;2022-10-16T01:57:34;13.30;91.90
75321;DHT22;63920;52.130;5.584;2022-10-16T02:00:06;13.30;92.00
75321;DHT22;63920;52.130;5.584;2022-10-16T02:02:33;13.20;92.10
75321;DHT22;63920;52.130;5.584;2022-10-16T02:05:46;13.10;92.10
75321;DHT22;63920;52.130;5.584;2022-10-16T02:07:52;13.20;92.20
75321;DHT22;63920;52.130;5.584;2022-10-16T02:10:18;13.20;92.20
75321;DHT22;63920;52.130;5.584;2022-10-16T02:12:59;13.10;92.20
75321;DHT22;63920;52.130;5.584;2022-10-16T02:15:25;13.20;92.20
75321;DHT22;63920;52.130;5.584;2022-10-16T02:17:51;13.20;92.30
75321;DHT22;63920;52.130;5.584;2022-10-16T02:20:17;13.30;92.40
75321;DHT22;63920;52.130;5.584;2022-10-16T02:22:46;13.30;92.40
75321;DHT22;63920;52.130;5.584;2022-10-16T02:25:26;13.30;92.70
75321;DHT22;63920;52.130;5.584;2022-10-16T02:30:44;13.30;92.40
75321;DHT22;63920;52.130;5.584;2022-10-16T02:33:11;13.30;92.40
75321;DHT22;63920;52.130;5.584;2022-10-16T02:35:40;13.20;92.50
75321;DHT22;63920;52.130;5.584;2022-10-16T02:38:07;13.20;92.50
75321;DHT22;63920;52.130;5.584;2022-10-16T02:40:34;13.20;92.50
75321;DHT22;63920;52.130;5.584;2022-10-16T02:42:59;13.30;92.50
75321;DHT22;63920;52.130;5.584;2022-10-16T02:45:26;13.30;92.50
75321;DHT22;63920;52.130;5.584;2022-10-16T02:47:51;13.30;92.60
75321;DHT22;63920;52.130;5.584;2022-10-16T02:50:17;13.20;92.60
75321;DHT22;63920;52.130;5.584;2022-10-16T02:52:43;13.30;92.70
75321;DHT22;63920;52.130;5.584;2022-10-16T02:55:08;13.20;92.60
75321;DHT22;63920;52.130;5.584;2022-10-16T02:57:34;13.20;92.70
75321;DHT22;63920;52.130;5.584;2022-10-16T03:00:06;13.20;92.80
75321;DHT22;63920;52.130;5.584;2022-10-16T03:02:31;13.20;92.90
75321;DHT22;63920;52.130;5.584;2022-10-16T03:04:57;13.20;92.90
75321;DHT22;63920;52.130;5.584;2022-10-16T03:07:22;13.20;93.00
75321;DHT22;63920;52.130;5.584;2022-10-16T03:09:48;13.20;92.90
75321;DHT22;63920;52.130;5.584;2022-10-16T03:12:13;13.20;93.00
75321;DHT22;63920;52.130;5.584;2022-10-16T03:14:39;13.10;93.00
75321;DHT22;63920;52.130;5.584;2022-10-16T03:17:05;13.10;93.20
75321;DHT22;63920;52.130;5.584;2022-10-16T03:19:31;13.10;93.20
75321;DHT22;63920;52.130;5.584;2022-10-16T03:21:56;13.10;93.20
75321;DHT22;63920;52.130;5.584;2022-10-16T03:24:22;13.10;93.20
75321;DHT22;63920;52.130;5.584;2022-10-16T03:26:48;13.10;93.20
75321;DHT22;63920;52.130;5.584;2022-10-16T03:29:13;13.20;93.30
75321;DHT22;63920;52.130;5.584;2022-10-16T03:31:39;13.10;93.30
75321;DHT22;63920;52.130;5.584;2022-10-16T03:34:04;13.10;93.30
75321;DHT22;63920;52.130;5.584;2022-10-16T03:36:30;13.10;93.30
75321;DHT22;63920;52.130;5.584;2022-10-16T03:38:55;13.10;93.40
75321;DHT22;63920;52.130;5.584;2022-10-16T03:41:21;13.00;93.40
75321;DHT22;63920;52.130;5.584;2022-10-16T03:43:46;13.00;93.40
75321;DHT22;63920;52.130;5.584;2022-10-16T03:46:12;13.00;93.60
75321;DHT22;63920;52.130;5.584;2022-10-16T03:48:37;12.90;93.60
75321;DHT22;63920;52.130;5.584;2022-10-16T03:51:03;12.90;93.70
75321;DHT22;63920;52.130;5.584;2022-10-16T03:53:28;12.90;93.70
75321;DHT22;63920;52.130;5.584;2022-10-16T03:55:54;12.90;93.80
75321;DHT22;63920;52.130;5.584;2022-10-16T03:58:19;12.90;93.80
75321;DHT22;63920;52.130;5.584;2022-10-16T04:00:45;12.90;93.80
75321;DHT22;63920;52.130;5.584;2022-10-16T04:03:12;13.00;93.60
75321;DHT22;63920;52.130;5.584;2022-10-16T04:05:38;12.90;93.60
75321;DHT22;63920;52.130;5.584;2022-10-16T04:08:04;12.90;93.70
75321;DHT22;63920;52.130;5.584;2022-10-16T04:10:30;12.90;93.60
75321;DHT22;63920;52.130;5.584;2022-10-16T04:12:55;12.90;93.60
75321;DHT22;63920;52.130;5.584;2022-10-16T04:15:22;12.90;93.60
75321;DHT22;63920;52.130;5.584;2022-10-16T04:17:47;12.90;93.50
75321;DHT22;63920;52.130;5.584;2022-10-16T04:20:13;12.80;93.60
75321;DHT22;63920;52.130;5.584;2022-10-16T04:22:39;12.80;93.70
75321;DHT22;63920;52.130;5.584;2022-10-16T04:25:05;12.80;93.70
75321;DHT22;63920;52.130;5.584;2022-10-16T04:27:30;12.80;93.70
75321;DHT22;63920;52.130;5.584;2022-10-16T04:29:57;12.80;93.70
75321;DHT22;63920;52.130;5.584;2022-10-16T04:32:23;12.80;93.70
75321;DHT22;63920;52.130;5.584;2022-10-16T04:34:48;12.80;93.70
75321;DHT22;63920;52.130;5.584;2022-10-16T04:37:14;12.80;93.80
75321;DHT22;63920;52.130;5.584;2022-10-16T04:39:39;12.80;93.80
75321;DHT22;63920;52.130;5.584;2022-10-16T04:42:05;12.70;93.80
75321;DHT22;63920;52.130;5.584;2022-10-16T04:44:31;12.70;93.70
75321;DHT22;63920;52.130;5.584;2022-10-16T04:46:56;12.70;93.80
75321;DHT22;63920;52.130;5.584;2022-10-16T04:49:22;12.70;93.80
75321;DHT22;63920;52.130;5.584;2022-10-16T04:51:47;12.80;93.70
75321;DHT22;63920;52.130;5.584;2022-10-16T04:54:13;12.70;93.70
75321;DHT22;63920;52.130;5.584;2022-10-16T04:56:38;12.70;93.80
75321;DHT22;63920;52.130;5.584;2022-10-16T04:59:14;12.70;93.80
75321;DHT22;63920;52.130;5.584;2022-10-16T05:01:39;12.70;93.90
75321;DHT22;63920;52.130;5.584;2022-10-16T05:04:05;12.70;93.80
75321;DHT22;63920;52.130;5.584;2022-10-16T05:06:31;12.70;93.90
75321;DHT22;63920;52.130;5.584;2022-10-16T05:08:56;12.70;94.30
75321;DHT22;63920;52.130;5.584;2022-10-16T05:11:22;12.70;93.90
75321;DHT22;63920;52.130;5.584;2022-10-16T05:13:47;12.70;93.90
75321;DHT22;63920;52.130;5.584;2022-10-16T05:16:13;12.70;94.00
75321;DHT22;63920;52.130;5.584;2022-10-16T05:18:38;12.70;94.00
75321;DHT22;63920;52.130;5.584;2022-10-16T05:21:04;12.60;94.10
75321;DHT22;63920;52.130;5.584;2022-10-16T05:23:30;12.60;94.00
75321;DHT22;63920;52.130;5.584;2022-10-16T05:25:57;12.60;94.00
75321;DHT22;63920;52.130;5.584;2022-10-16T05:28:24;12.60;94.10
75321;DHT22;63920;52.130;5.584;2022-10-16T05:30:52;12.60;94.10
75321;DHT22;63920;52.130;5.584;2022-10-16T05:33:20;12.50;94.10
75321;DHT22;63920;52.130;5.584;2022-10-16T05:35:46;12.50;94.20
75321;DHT22;63920;52.130;5.584;2022-10-16T05:38:12;12.50;94.10
75321;DHT22;63920;52.130;5.584;2022-10-16T05:40:37;12.50;94.20
75321;DHT22;63920;52.130;5.584;2022-10-16T05:43:03;12.40;94.30
75321;DHT22;63920;52.130;5.584;2022-10-16T05:45:28;12.40;94.30
75321;DHT22;63920;52.130;5.584;2022-10-16T05:47:54;12.50;94.40
75321;DHT22;63920;52.130;5.584;2022-10-16T05:50:20;12.40;94.40
75321;DHT22;63920;52.130;5.584;2022-10-16T05:52:45;12.40;94.40
75321;DHT22;63920;52.130;5.584;2022-10-16T05:55:11;12.40;94.40
75321;DHT22;63920;52.130;5.584;2022-10-16T05:57:36;12.40;94.50
75321;DHT22;63920;52.130;5.584;2022-10-16T06:00:03;12.40;94.40
75321;DHT22;63920;52.130;5.584;2022-10-16T06:02:29;12.50;94.50
75321;DHT22;63920;52.130;5.584;2022-10-16T06:04:54;12.50;94.40
75321;DHT22;63920;52.130;5.584;2022-10-16T06:07:20;12.50;94.50
75321;DHT22;63920;52.130;5.584;2022-10-16T06:09:50;12.50;94.40
75321;DHT22;63920;52.130;5.584;2022-10-16T06:12:16;12.50;94.40
75321;DHT22;63920;52.130;5.584;2022-10-16T06:14:42;12.60;94.40
75321;DHT22;63920;52.130;5.584;2022-10-16T06:17:07;12.60;94.50
75321;DHT22;63920;52.130;5.584;2022-10-16T06:19:33;12.60;94.50
75321;DHT22;63920;52.130;5.584;2022-10-16T06:21:59;12.60;94.30
75321;DHT22;63920;52.130;5.584;2022-10-16T06:24:25;12.60;94.30
75321;DHT22;63920;52.130;5.584;2022-10-16T06:26:51;12.70;94.30
75321;DHT22;63920;52.130;5.584;2022-10-16T06:29:16;12.70;94.30
75321;DHT22;63920;52.130;5.584;2022-10-16T06:31:42;12.70;94.10
75321;DHT22;63920;52.130;5.584;2022-10-16T06:34:09;12.80;94.20
75321;DHT22;63920;52.130;5.584;2022-10-16T06:36:37;12.80;94.10
75321;DHT22;63920;52.130;5.584;2022-10-16T06:39:04;12.80;94.20
75321;DHT22;63920;52.130;5.584;2022-10-16T06:41:30;12.80;94.20
75321;DHT22;63920;52.130;5.584;2022-10-16T06:43:56;12.90;94.30
75321;DHT22;63920;52.130;5.584;2022-10-16T06:46:23;12.80;94.20
75321;DHT22;63920;52.130;5.584;2022-10-16T06:48:49;12.80;94.20
75321;DHT22;63920;52.130;5.584;2022-10-16T06:51:20;12.80;94.20
75321;DHT22;63920;52.130;5.584;2022-10-16T06:53:48;12.90;94.20
75321;DHT22;63920;52.130;5.584;2022-10-16T06:56:27;12.90;94.30
75321;DHT22;63920;52.130;5.584;2022-10-16T06:58:54;12.90;94.20
75321;DHT22;63920;52.130;5.584;2022-10-16T07:01:23;12.90;94.20
75321;DHT22;63920;52.130;5.584;2022-10-16T07:03:49;12.90;94.10
75321;DHT22;63920;52.130;5.584;2022-10-16T07:06:17;12.90;94.00
75321;DHT22;63920;52.130;5.584;2022-10-16T07:08:45;12.90;94.00
75321;DHT22;63920;52.130;5.584;2022-10-16T07:11:13;12.90;94.00
75321;DHT22;63920;52.130;5.584;2022-10-16T07:13:40;12.90;94.00
75321;DHT22;63920;52.130;5.584;2022-10-16T07:16:11;12.90;94.00
75321;DHT22;63920;52.130;5.584;2022-10-16T07:18:37;12.90;94.00
75321;DHT22;63920;52.130;5.584;2022-10-16T07:21:09;12.90;94.00
75321;DHT22;63920;52.130;5.584;2022-10-16T07:23:35;12.90;94.00
75321;DHT22;63920;52.130;5.584;2022-10-16T07:26:00;12.90;94.10
75321;DHT22;63920;52.130;5.584;2022-10-16T07:28:27;13.00;94.10
75321;DHT22;63920;52.130;5.584;2022-10-16T07:30:52;13.00;94.10
75321;DHT22;63920;52.130;5.584;2022-10-16T07:33:18;13.00;94.10
75321;DHT22;63920;52.130;5.584;2022-10-16T07:35:51;13.10;94.10
75321;DHT22;63920;52.130;5.584;2022-10-16T07:38:17;13.10;93.80
75321;DHT22;63920;52.130;5.584;2022-10-16T07:40:43;13.10;93.70
75321;DHT22;63920;52.130;5.584;2022-10-16T07:43:09;13.20;93.80
75321;DHT22;63920;52.130;5.584;2022-10-16T07:45:35;13.10;93.80
75321;DHT22;63920;52.130;5.584;2022-10-16T07:48:00;13.20;93.60
75321;DHT22;63920;52.130;5.584;2022-10-16T07:50:26;13.20;93.60
75321;DHT22;63920;52.130;5.584;2022-10-16T07:52:51;13.20;93.60
75321;DHT22;63920;52.130;5.584;2022-10-16T07:55:17;13.20;93.60
75321;DHT22;63920;52.130;5.584;2022-10-16T07:57:43;13.30;93.60
75321;DHT22;63920;52.130;5.584;2022-10-16T08:00:09;13.40;93.70
75321;DHT22;63920;52.130;5.584;2022-10-16T08:02:39;13.40;93.60
75321;DHT22;63920;52.130;5.584;2022-10-16T08:05:06;13.40;93.60
75321;DHT22;63920;52.130;5.584;2022-10-16T08:07:31;13.40;93.60
75321;DHT22;63920;52.130;5.584;2022-10-16T08:09:57;13.50;93.50
75321;DHT22;63920;52.130;5.584;2022-10-16T08:12:24;13.60;93.40
75321;DHT22;63920;52.130;5.584;2022-10-16T08:14:50;13.60;93.30
75321;DHT22;63920;52.130;5.584;2022-10-16T08:17:15;13.70;93.20
75321;DHT22;63920;52.130;5.584;2022-10-16T08:19:44;13.80;93.00
75321;DHT22;63920;52.130;5.584;2022-10-16T08:22:10;13.80;93.00
75321;DHT22;63920;52.130;5.584;2022-10-16T08:24:35;13.90;92.90
75321;DHT22;63920;52.130;5.584;2022-10-16T08:27:02;14.00;92.80
75321;DHT22;63920;52.130;5.584;2022-10-16T08:29:28;14.10;92.40
75321;DHT22;63920;52.130;5.584;2022-10-16T08:31:53;14.10;92.30
75321;DHT22;63920;52.130;5.584;2022-10-16T08:34:19;14.20;92.20
75321;DHT22;63920;52.130;5.584;2022-10-16T08:36:45;14.20;92.20
75321;DHT22;63920;52.130;5.584;2022-10-16T08:39:10;14.20;92.30
75321;DHT22;63920;52.130;5.584;2022-10-16T08:41:56;14.20;92.20
75321;DHT22;63920;52.130;5.584;2022-10-16T08:47:41;14.40;91.60
75321;DHT22;63920;52.130;5.584;2022-10-16T08:50:12;14.40;92.00
75321;DHT22;63920;52.130;5.584;2022-10-16T08:52:43;14.50;91.80
75321;DHT22;63920;52.130;5.584;2022-10-16T08:55:29;14.50;91.20
75321;DHT22;63920;52.130;5.584;2022-10-16T08:57:55;14.60;91.60
75321;DHT22;63920;52.130;5.584;2022-10-16T09:00:21;14.60;91.50
75321;DHT22;63920;52.130;5.584;2022-10-16T09:03:11;14.70;91.40
75321;DHT22;63920;52.130;5.584;2022-10-16T09:09:03;15.00;90.80
75321;DHT22;63920;52.130;5.584;2022-10-16T09:11:49;15.10;90.50
75321;DHT22;63920;52.130;5.584;2022-10-16T09:23:22;15.30;89.00
75321;DHT22;63920;52.130;5.584;2022-10-16T09:25:51;15.30;88.50
75321;DHT22;63920;52.130;5.584;2022-10-16T09:28:18;15.50;88.30
75321;DHT22;63920;52.130;5.584;2022-10-16T09:30:45;15.60;88.10
75321;DHT22;63920;52.130;5.584;2022-10-16T09:33:12;15.70;88.30
75321;DHT22;63920;52.130;5.584;2022-10-16T09:35:46;15.80;87.60
75321;DHT22;63920;52.130;5.584;2022-10-16T09:38:30;15.80;87.20
75321;DHT22;63920;52.130;5.584;2022-10-16T09:40:58;15.90;86.40
75321;DHT22;63920;52.130;5.584;2022-10-16T09:43:36;15.90;85.80
75321;DHT22;63920;52.130;5.584;2022-10-16T09:46:26;16.00;85.30
75321;DHT22;63920;52.130;5.584;2022-10-16T09:48:59;16.00;85.30
75321;DHT22;63920;52.130;5.584;2022-10-16T09:51:26;16.00;85.90
75321;DHT22;63920;52.130;5.584;2022-10-16T09:53:58;15.90;85.50
75321;DHT22;63920;52.130;5.584;2022-10-16T09:56:32;15.90;85.40
75321;DHT22;63920;52.130;5.584;2022-10-16T09:59:00;16.00;84.60
75321;DHT22;63920;52.130;5.584;2022-10-16T10:01:35;16.00;84.70
75321;DHT22;63920;52.130;5.584;2022-10-16T10:04:03;16.10;85.30
75321;DHT22;63920;52.130;5.584;2022-10-16T10:06:32;16.10;84.60
75321;DHT22;63920;52.130;5.584;2022-10-16T10:12:01;16.30;83.80
75321;DHT22;63920;52.130;5.584;2022-10-16T10:33:28;16.50;82.70
75321;DHT22;63920;52.130;5.584;2022-10-16T10:39:38;16.60;81.60
75321;DHT22;63920;52.130;5.584;2022-10-16T10:44:55;16.80;81.10
75321;DHT22;63920;52.130;5.584;2022-10-16T10:47:38;16.80;79.90
75321;DHT22;63920;52.130;5.584;2022-10-16T10:55:33;16.60;79.00
75321;DHT22;63920;52.130;5.584;2022-10-16T10:58:24;16.70;80.60
75321;DHT22;63920;52.130;5.584;2022-10-16T11:01:04;16.90;78.50
75321;DHT22;63920;52.130;5.584;2022-10-16T11:06:40;16.90;77.10
75321;DHT22;63920;52.130;5.584;2022-10-16T11:09:45;16.90;77.30
75321;DHT22;63920;52.130;5.584;2022-10-16T11:12:19;16.90;77.00
75321;DHT22;63920;52.130;5.584;2022-10-16T11:14:56;16.90;74.90
75321;DHT22;63920;52.130;5.584;2022-10-16T11:17:31;17.00;75.00
75321;DHT22;63920;52.130;5.584;2022-10-16T11:22:44;17.10;75.60
75321;DHT22;63920;52.130;5.584;2022-10-16T11:25:33;17.00;73.80
75321;DHT22;63920;52.130;5.584;2022-10-16T11:31:08;17.00;76.00
75321;DHT22;63920;52.130;5.584;2022-10-16T11:33:52;17.20;76.90
75321;DHT22;63920;52.130;5.584;2022-10-16T11:39:18;17.50;75.80
75321;DHT22;63920;52.130;5.584;2022-10-16T11:41:49;17.70;72.70
75321;DHT22;63920;52.130;5.584;2022-10-16T11:47:24;17.50;71.60
75321;DHT22;63920;52.130;5.584;2022-10-16T11:49:57;17.60;69.40
75321;DHT22;63920;52.130;5.584;2022-10-16T11:52:31;17.80;69.40
75321;DHT22;63920;52.130;5.584;2022-10-16T11:57:33;17.60;67.50
75321;DHT22;63920;52.130;5.584;2022-10-16T12:00:27;17.60;66.40
75321;DHT22;63920;52.130;5.584;2022-10-16T12:08:53;17.50;68.10
75321;DHT22;63920;52.130;5.584;2022-10-16T12:14:07;17.20;68.00
75321;DHT22;63920;52.130;5.584;2022-10-16T12:16:56;17.10;69.50
75321;DHT22;63920;52.130;5.584;2022-10-16T12:19:24;17.10;70.60
75321;DHT22;63920;52.130;5.584;2022-10-16T12:21:51;17.20;70.50
75321;DHT22;63920;52.130;5.584;2022-10-16T12:26:50;17.50;69.70
75321;DHT22;63920;52.130;5.584;2022-10-16T12:29:37;17.70;68.70
75321;DHT22;63920;52.130;5.584;2022-10-16T12:32:38;17.70;67.60
75321;DHT22;63920;52.130;5.584;2022-10-16T12:35:06;17.80;67.80
75321;DHT22;63920;52.130;5.584;2022-10-16T12:37:34;17.80;65.20
75321;DHT22;63920;52.130;5.584;2022-10-16T12:40:12;17.80;63.90
75321;DHT22;63920;52.130;5.584;2022-10-16T12:42:39;17.80;64.90
75321;DHT22;63920;52.130;5.584;2022-10-16T12:45:28;17.80;64.90
75321;DHT22;63920;52.130;5.584;2022-10-16T12:47:55;17.80;63.30
75321;DHT22;63920;52.130;5.584;2022-10-16T12:50:31;17.80;62.50
75321;DHT22;63920;52.130;5.584;2022-10-16T12:52:57;17.80;60.70
75321;DHT22;63920;52.130;5.584;2022-10-16T12:55:23;17.80;62.00
75321;DHT22;63920;52.130;5.584;2022-10-16T13:00:54;17.80;61.70
75321;DHT22;63920;52.130;5.584;2022-10-16T13:03:41;17.80;62.60
75321;DHT22;63920;52.130;5.584;2022-10-16T13:17:26;17.80;67.00
75321;DHT22;63920;52.130;5.584;2022-10-16T13:20:19;17.90;66.80
75321;DHT22;63920;52.130;5.584;2022-10-16T13:23:13;17.90;66.90
75321;DHT22;63920;52.130;5.584;2022-10-16T13:28:15;17.90;67.40
75321;DHT22;63920;52.130;5.584;2022-10-16T13:30:45;17.90;68.20
75321;DHT22;63920;52.130;5.584;2022-10-16T13:33:20;17.80;67.70
75321;DHT22;63920;52.130;5.584;2022-10-16T13:35:51;17.80;68.30
75321;DHT22;63920;52.130;5.584;2022-10-16T13:38:20;17.80;68.40
75321;DHT22;63920;52.130;5.584;2022-10-16T13:40:58;17.80;69.10
75321;DHT22;63920;52.130;5.584;2022-10-16T13:46:02;17.60;67.90
75321;DHT22;63920;52.130;5.584;2022-10-16T13:48:30;17.60;68.50
75321;DHT22;63920;52.130;5.584;2022-10-16T13:51:13;17.60;68.60
75321;DHT22;63920;52.130;5.584;2022-10-16T13:53:39;17.60;68.50
75321;DHT22;63920;52.130;5.584;2022-10-16T13:56:13;17.60;69.00
75321;DHT22;63920;52.130;5.584;2022-10-16T13:58:39;17.60;69.20
75321;DHT22;63920;52.130;5.584;2022-10-16T14:01:20;17.50;69.50
75321;DHT22;63920;52.130;5.584;2022-10-16T14:03:48;17.50;69.40
75321;DHT22;63920;52.130;5.584;2022-10-16T14:06:19;17.50;70.20
75321;DHT22;63920;52.130;5.584;2022-10-16T14:09:35;17.50;70.80
75321;DHT22;63920;52.130;5.584;2022-10-16T14:12:08;17.50;70.40
75321;DHT22;63920;52.130;5.584;2022-10-16T14:14:40;17.50;70.00
75321;DHT22;63920;52.130;5.584;2022-10-16T14:17:06;17.50;71.50
75321;DHT22;63920;52.130;5.584;2022-10-16T14:19:38;17.40;70.30
75321;DHT22;63920;52.130;5.584;2022-10-16T14:22:32;17.50;71.70
75321;DHT22;63920;52.130;5.584;2022-10-16T14:24:58;17.50;71.00
75321;DHT22;63920;52.130;5.584;2022-10-16T14:27:36;17.50;71.00
75321;DHT22;63920;52.130;5.584;2022-10-16T14:30:10;17.40;70.90
75321;DHT22;63920;52.130;5.584;2022-10-16T14:32:41;17.50;71.00
75321;DHT22;63920;52.130;5.584;2022-10-16T14:35:32;17.50;71.50
75321;DHT22;63920;52.130;5.584;2022-10-16T14:37:59;17.40;71.30
75321;DHT22;63920;52.130;5.584;2022-10-16T14:40:28;17.40;71.30
75321;DHT22;63920;52.130;5.584;2022-10-16T14:42:54;17.40;70.30
75321;DHT22;63920;52.130;5.584;2022-10-16T14:45:29;17.30;69.70
75321;DHT22;63920;52.130;5.584;2022-10-16T14:47:58;17.30;70.00
75321;DHT22;63920;52.130;5.584;2022-10-16T14:50:24;17.40;70.20
75321;DHT22;63920;52.130;5.584;2022-10-16T14:52:50;17.30;71.00
75321;DHT22;63920;52.130;5.584;2022-10-16T14:55:16;17.30;71.00
75321;DHT22;63920;52.130;5.584;2022-10-16T14:57:43;17.30;71.40
75321;DHT22;63920;52.130;5.584;2022-10-16T15:00:20;17.20;71.90
75321;DHT22;63920;52.130;5.584;2022-10-16T15:02:47;17.30;71.30
75321;DHT22;63920;52.130;5.584;2022-10-16T15:05:20;17.30;71.60
75321;DHT22;63920;52.130;5.584;2022-10-16T15:07:47;17.20;71.60
75321;DHT22;63920;52.130;5.584;2022-10-16T15:10:14;17.20;72.10
75321;DHT22;63920;52.130;5.584;2022-10-16T15:12:41;17.20;72.10
75321;DHT22;63920;52.130;5.584;2022-10-16T15:17:53;17.20;73.90
75321;DHT22;63920;52.130;5.584;2022-10-16T15:20:22;17.10;74.30
75321;DHT22;63920;52.130;5.584;2022-10-16T15:22:48;17.10;72.40
75321;DHT22;63920;52.130;5.584;2022-10-16T15:25:27;17.20;73.90
75321;DHT22;63920;52.130;5.584;2022-10-16T15:27:53;17.10;73.00
75321;DHT22;63920;52.130;5.584;2022-10-16T15:30:18;17.00;73.50
75321;DHT22;63920;52.130;5.584;2022-10-16T15:32:44;17.00;73.80
75321;DHT22;63920;52.130;5.584;2022-10-16T15:35:09;16.90;74.90
75321;DHT22;63920;52.130;5.584;2022-10-16T15:37:35;16.90;75.70
75321;DHT22;63920;52.130;5.584;2022-10-16T15:40:01;16.80;75.80
75321;DHT22;63920;52.130;5.584;2022-10-16T15:42:26;16.70;75.80
75321;DHT22;63920;52.130;5.584;2022-10-16T15:44:52;16.50;78.20
75321;DHT22;63920;52.130;5.584;2022-10-16T15:47:17;16.50;78.20
75321;DHT22;63920;52.130;5.584;2022-10-16T15:49:43;16.50;78.50
75321;DHT22;63920;52.130;5.584;2022-10-16T15:52:08;16.50;79.50
75321;DHT22;63920;52.130;5.584;2022-10-16T15:54:34;16.40;79.90
75321;DHT22;63920;52.130;5.584;2022-10-16T15:57:00;16.40;80.60
75321;DHT22;63920;52.130;5.584;2022-10-16T15:59:26;16.50;81.20
75321;DHT22;63920;52.130;5.584;2022-10-16T16:01:52;16.30;81.60
75321;DHT22;63920;52.130;5.584;2022-10-16T16:04:20;16.40;82.50
75321;DHT22;63920;52.130;5.584;2022-10-16T16:06:46;16.20;83.30
75321;DHT22;63920;52.130;5.584;2022-10-16T16:09:12;16.10;83.30
75321;DHT22;63920;52.130;5.584;2022-10-16T16:11:38;16.10;83.80
75321;DHT22;63920;52.130;5.584;2022-10-16T16:14:05;16.00;84.60
75321;DHT22;63920;52.130;5.584;2022-10-16T16:16:31;16.00;84.30
75321;DHT22;63920;52.130;5.584;2022-10-16T16:19:02;16.20;84.70
75321;DHT22;63920;52.130;5.584;2022-10-16T16:21:27;16.10;83.60
75321;DHT22;63920;52.130;5.584;2022-10-16T16:23:53;16.10;84.10
75321;DHT22;63920;52.130;5.584;2022-10-16T16:26:27;16.00;84.60
75321;DHT22;63920;52.130;5.584;2022-10-16T16:28:57;16.00;85.00
75321;DHT22;63920;52.130;5.584;2022-10-16T16:31:27;16.00;84.10
75321;DHT22;63920;52.130;5.584;2022-10-16T16:33:54;15.90;85.30
75321;DHT22;63920;52.130;5.584;2022-10-16T16:36:20;15.90;85.90
75321;DHT22;63920;52.130;5.584;2022-10-16T16:38:46;16.00;85.70
75321;DHT22;63920;52.130;5.584;2022-10-16T16:41:16;16.10;84.80
75321;DHT22;63920;52.130;5.584;2022-10-16T16:43:42;16.20;83.60
75321;DHT22;63920;52.130;5.584;2022-10-16T16:46:08;16.10;83.60
75321;DHT22;63920;52.130;5.584;2022-10-16T16:48:34;16.00;84.00
75321;DHT22;63920;52.130;5.584;2022-10-16T16:51:04;15.90;84.20
75321;DHT22;63920;52.130;5.584;2022-10-16T16:53:30;15.80;84.90
75321;DHT22;63920;52.130;5.584;2022-10-16T16:56:01;15.80;85.30
75321;DHT22;63920;52.130;5.584;2022-10-16T16:58:26;15.80;85.90
75321;DHT22;63920;52.130;5.584;2022-10-16T17:00:52;15.90;85.60
75321;DHT22;63920;52.130;5.584;2022-10-16T17:03:17;15.90;85.00
75321;DHT22;63920;52.130;5.584;2022-10-16T17:05:43;15.90;85.10
75321;DHT22;63920;52.130;5.584;2022-10-16T17:08:08;15.90;85.20
75321;DHT22;63920;52.130;5.584;2022-10-16T17:10:34;16.00;84.80
75321;DHT22;63920;52.130;5.584;2022-10-16T17:13:06;15.90;84.60
75321;DHT22;63920;52.130;5.584;2022-10-16T17:15:32;16.00;84.50
75321;DHT22;63920;52.130;5.584;2022-10-16T17:17:58;15.90;84.10
75321;DHT22;63920;52.130;5.584;2022-10-16T17:20:23;16.00;84.30
75321;DHT22;63920;52.130;5.584;2022-10-16T17:22:49;16.00;83.40
75321;DHT22;63920;52.130;5.584;2022-10-16T17:25:15;16.00;83.50
75321;DHT22;63920;52.130;5.584;2022-10-16T17:27:40;15.80;83.90
75321;DHT22;63920;52.130;5.584;2022-10-16T17:30:06;15.80;84.20
75321;DHT22;63920;52.130;5.584;2022-10-16T17:32:31;15.80;84.00
75321;DHT22;63920;52.130;5.584;2022-10-16T17:34:57;15.80;84.40